sensor_id;sensor_type;location;lat;lon;timestamp;P1;durP1;ratioP1;P2;durP2;ratioP2
63007;SDS011;49266;47.552;19.078;2022-10-16T06:50:56;13.68;;;10.25;;
63007;SDS011;49266;47.552;19.078;2022-10-16T06:55:36;14.95;;;10.38;;
63007;SDS011;49266;47.552;19.078;2022-10-16T07:00:16;13.43;;;10.10;;
63007;SDS011;49266;47.552;19.078;2022-10-16T07:04:57;15.20;;;9.60;;
63007;SDS011;49266;47.552;19.078;2022-10-16T07:09:37;14.73;;;10.05;;
63007;SDS011;49266;47.552;19.078;2022-10-16T07:14:18;14.05;;;10.05;;
63007;SDS011;49266;47.552;19.078;2022-10-16T07:18:59;18.40;;;10.40;;
63007;SDS011;49266;47.552;19.078;2022-10-16T07:23:39;15.00;;;9.93;;
63007;SDS011;49266;47.552;19.078;2022-10-16T07:28:19;14.73;;;10.02;;
63007;SDS011;49266;47.552;19.078;2022-10-16T07:32:59;13.52;;;9.80;;
63007;SDS011;49266;47.552;19.078;2022-10-16T07:37:43;16.15;;;10.13;;
63007;SDS011;49266;47.552;19.078;2022-10-16T07:42:23;16.75;;;9.48;;
63007;SDS011;49266;47.552;19.078;2022-10-16T07:47:03;13.25;;;9.73;;
63007;SDS011;49266;47.552;19.078;2022-10-16T07:51:44;14.60;;;10.23;;
63007;SDS011;49266;47.552;19.078;2022-10-16T07:56:24;14.18;;;10.10;;
63007;SDS011;49266;47.552;19.078;2022-10-16T08:01:05;15.57;;;9.65;;
63007;SDS011;49266;47.552;19.078;2022-10-16T08:05:46;16.17;;;9.93;;
63007;SDS011;49266;47.552;19.078;2022-10-16T08:10:27;13.73;;;10.10;;
63007;SDS011;49266;47.552;19.078;2022-10-16T08:15:08;14.73;;;9.98;;
63007;SDS011;49266;47.552;19.078;2022-10-16T08:19:48;14.48;;;9.85;;
63007;SDS011;49266;47.552;19.078;2022-10-16T08:24:28;13.68;;;10.10;;
63007;SDS011;49266;47.552;19.078;2022-10-16T08:29:11;13.18;;;9.93;;
63007;SDS011;49266;47.552;19.078;2022-10-16T08:33:51;12.90;;;9.70;;
63007;SDS011;49266;47.552;19.078;2022-10-16T08:38:32;14.30;;;10.40;;
63007;SDS011;49266;47.552;19.078;2022-10-16T08:52:40;15.75;;;10.40;;
63007;SDS011;49266;47.552;19.078;2022-10-16T08:57:22;16.25;;;10.73;;
63007;SDS011;49266;47.552;19.078;2022-10-16T09:02:02;14.57;;;10.52;;
63007;SDS011;49266;47.552;19.078;2022-10-16T09:16:21;14.55;;;10.27;;
63007;SDS011;49266;47.552;19.078;2022-10-16T09:25:50;13.88;;;9.57;;
63007;SDS011;49266;47.552;19.078;2022-10-16T09:30:30;14.33;;;10.10;;
63007;SDS011;49266;47.552;19.078;2022-10-16T09:35:18;13.70;;;10.07;;
63007;SDS011;49266;47.552;19.078;2022-10-16T09:39:59;14.95;;;10.07;;
63007;SDS011;49266;47.552;19.078;2022-10-16T09:44:39;15.40;;;10.02;;
63007;SDS011;49266;47.552;19.078;2022-10-16T09:49:21;12.73;;;9.88;;
63007;SDS011;49266;47.552;19.078;2022-10-16T09:58:52;14.57;;;9.70;;
63007;SDS011;49266;47.552;19.078;2022-10-16T10:03:39;14.50;;;9.02;;
63007;SDS011;49266;47.552;19.078;2022-10-16T10:08:20;15.55;;;9.48;;
63007;SDS011;49266;47.552;19.078;2022-10-16T10:13:00;12.38;;;9.18;;
63007;SDS011;49266;47.552;19.078;2022-10-16T10:22:30;11.25;;;8.80;;
63007;SDS011;49266;47.552;19.078;2022-10-16T10:27:13;14.73;;;8.75;;
63007;SDS011;49266;47.552;19.078;2022-10-16T10:32:05;12.30;;;8.50;;
63007;SDS011;49266;47.552;19.078;2022-10-16T10:36:51;11.68;;;7.63;;
63007;SDS011;49266;47.552;19.078;2022-10-16T10:46:20;12.05;;;8.80;;
63007;SDS011;49266;47.552;19.078;2022-10-16T10:51:04;10.95;;;8.18;;
63007;SDS011;49266;47.552;19.078;2022-10-16T10:55:48;11.68;;;8.07;;
63007;SDS011;49266;47.552;19.078;2022-10-16T11:05:34;12.00;;;8.13;;
63007;SDS011;49266;47.552;19.078;2022-10-16T11:10:19;11.65;;;8.10;;
63007;SDS011;49266;47.552;19.078;2022-10-16T11:15:02;10.40;;;7.15;;
63007;SDS011;49266;47.552;19.078;2022-10-16T11:24:26;8.90;;;6.90;;
63007;SDS011;49266;47.552;19.078;2022-10-16T11:38:57;12.85;;;7.35;;
63007;SDS011;49266;47.552;19.078;2022-10-16T11:43:43;9.80;;;7.10;;
63007;SDS011;49266;47.552;19.078;2022-10-16T11:48:27;9.02;;;6.70;;
63007;SDS011;49266;47.552;19.078;2022-10-16T11:53:19;9.73;;;6.63;;
63007;SDS011;49266;47.552;19.078;2022-10-16T11:58:04;9.10;;;6.40;;
63007;SDS011;49266;47.552;19.078;2022-10-16T12:02:54;9.37;;;6.33;;
63007;SDS011;49266;47.552;19.078;2022-10-16T12:07:36;8.18;;;6.20;;
63007;SDS011;49266;47.552;19.078;2022-10-16T12:12:26;10.70;;;6.50;;
63007;SDS011;49266;47.552;19.078;2022-10-16T12:22:26;8.48;;;6.20;;
63007;SDS011;49266;47.552;19.078;2022-10-16T12:27:20;16.80;;;10.80;;
63007;SDS011;49266;47.552;19.078;2022-10-16T12:32:28;8.02;;;6.05;;
63007;SDS011;49266;47.552;19.078;2022-10-16T12:37:08;6.90;;;5.60;;
63007;SDS011;49266;47.552;19.078;2022-10-16T12:42:00;8.15;;;5.88;;
63007;SDS011;49266;47.552;19.078;2022-10-16T12:46:40;8.95;;;5.57;;
63007;SDS011;49266;47.552;19.078;2022-10-16T12:56:03;9.90;;;5.70;;
63007;SDS011;49266;47.552;19.078;2022-10-16T13:00:50;9.20;;;6.13;;
63007;SDS011;49266;47.552;19.078;2022-10-16T13:19:45;8.38;;;5.60;;
63007;SDS011;49266;47.552;19.078;2022-10-16T13:29:30;7.93;;;5.28;;
63007;SDS011;49266;47.552;19.078;2022-10-16T13:34:12;8.55;;;5.03;;
63007;SDS011;49266;47.552;19.078;2022-10-16T13:39:01;7.28;;;5.30;;
63007;SDS011;49266;47.552;19.078;2022-10-16T13:48:26;8.82;;;5.32;;
63007;SDS011;49266;47.552;19.078;2022-10-16T13:53:09;5.88;;;4.80;;
63007;SDS011;49266;47.552;19.078;2022-10-16T13:57:52;7.65;;;5.05;;
63007;SDS011;49266;47.552;19.078;2022-10-16T14:07:16;7.53;;;5.10;;
63007;SDS011;49266;47.552;19.078;2022-10-16T14:11:59;9.68;;;5.43;;
63007;SDS011;49266;47.552;19.078;2022-10-16T14:16:41;8.05;;;4.80;;
63007;SDS011;49266;47.552;19.078;2022-10-16T14:21:22;8.80;;;6.10;;
63007;SDS011;49266;47.552;19.078;2022-10-16T14:26:22;10.63;;;5.20;;
63007;SDS011;49266;47.552;19.078;2022-10-16T14:31:02;8.20;;;5.00;;
63007;SDS011;49266;47.552;19.078;2022-10-16T14:40:45;10.65;;;5.35;;
63007;SDS011;49266;47.552;19.078;2022-10-16T14:50:07;6.65;;;4.82;;
63007;SDS011;49266;47.552;19.078;2022-10-16T14:54:48;8.82;;;5.25;;
63007;SDS011;49266;47.552;19.078;2022-10-16T14:59:35;7.95;;;5.07;;
63007;SDS011;49266;47.552;19.078;2022-10-16T15:04:16;8.07;;;5.00;;
63007;SDS011;49266;47.552;19.078;2022-10-16T15:08:57;10.05;;;5.68;;
63007;SDS011;49266;47.552;19.078;2022-10-16T15:13:37;7.55;;;5.18;;
63007;SDS011;49266;47.552;19.078;2022-10-16T15:18:18;8.43;;;4.93;;
63007;SDS011;49266;47.552;19.078;2022-10-16T15:23:04;7.80;;;5.07;;
63007;SDS011;49266;47.552;19.078;2022-10-16T15:27:46;10.63;;;5.50;;
63007;SDS011;49266;47.552;19.078;2022-10-16T15:32:27;8.20;;;4.90;;
63007;SDS011;49266;47.552;19.078;2022-10-16T15:37:08;9.00;;;4.95;;
63007;SDS011;49266;47.552;19.078;2022-10-16T15:41:48;6.78;;;4.97;;
63007;SDS011;49266;47.552;19.078;2022-10-16T15:46:30;9.27;;;5.88;;
63007;SDS011;49266;47.552;19.078;2022-10-16T15:51:10;8.57;;;5.80;;
63007;SDS011;49266;47.552;19.078;2022-10-16T15:55:51;7.53;;;5.87;;
63007;SDS011;49266;47.552;19.078;2022-10-16T16:00:31;7.75;;;6.25;;
63007;SDS011;49266;47.552;19.078;2022-10-16T16:05:11;8.33;;;5.37;;
63007;SDS011;49266;47.552;19.078;2022-10-16T16:09:52;9.68;;;6.70;;
63007;SDS011;49266;47.552;19.078;2022-10-16T16:14:32;8.65;;;6.45;;
63007;SDS011;49266;47.552;19.078;2022-10-16T16:19:12;8.85;;;6.60;;
63007;SDS011;49266;47.552;19.078;2022-10-16T16:23:52;13.80;;;7.03;;
63007;SDS011;49266;47.552;19.078;2022-10-16T16:28:33;10.63;;;6.80;;
63007;SDS011;49266;47.552;19.078;2022-10-16T16:33:13;11.18;;;7.20;;
63007;SDS011;49266;47.552;19.078;2022-10-16T16:37:53;9.82;;;7.07;;
63007;SDS011;49266;47.552;19.078;2022-10-16T16:42:33;12.20;;;8.23;;
63007;SDS011;49266;47.552;19.078;2022-10-16T16:47:14;12.43;;;7.65;;
63007;SDS011;49266;47.552;19.078;2022-10-16T16:51:54;10.50;;;7.75;;
63007;SDS011;49266;47.552;19.078;2022-10-16T16:56:34;11.70;;;8.50;;
63007;SDS011;49266;47.552;19.078;2022-10-16T17:01:14;15.95;;;9.00;;
63007;SDS011;49266;47.552;19.078;2022-10-16T17:06:02;14.40;;;7.93;;
63007;SDS011;49266;47.552;19.078;2022-10-16T17:10:43;14.40;;;8.75;;
63007;SDS011;49266;47.552;19.078;2022-10-16T17:15:23;12.95;;;8.15;;
63007;SDS011;49266;47.552;19.078;2022-10-16T17:20:03;13.60;;;7.93;;
63007;SDS011;49266;47.552;19.078;2022-10-16T17:24:44;12.48;;;7.85;;
63007;SDS011;49266;47.552;19.078;2022-10-16T17:29:24;13.48;;;8.45;;
63007;SDS011;49266;47.552;19.078;2022-10-16T17:34:05;15.68;;;9.40;;
63007;SDS011;49266;47.552;19.078;2022-10-16T17:38:46;15.00;;;9.27;;
63007;SDS011;49266;47.552;19.078;2022-10-16T17:43:27;14.27;;;9.20;;
63007;SDS011;49266;47.552;19.078;2022-10-16T17:48:07;14.88;;;9.02;;
63007;SDS011;49266;47.552;19.078;2022-10-16T17:52:47;16.27;;;9.65;;
63007;SDS011;49266;47.552;19.078;2022-10-16T17:57:27;17.33;;;10.25;;
63007;SDS011;49266;47.552;19.078;2022-10-16T18:02:08;18.33;;;11.32;;
63007;SDS011;49266;47.552;19.078;2022-10-16T18:06:48;24.52;;;12.77;;
63007;SDS011;49266;47.552;19.078;2022-10-16T18:11:29;22.88;;;13.90;;
63007;SDS011;49266;47.552;19.078;2022-10-16T18:16:10;24.38;;;15.50;;
63007;SDS011;49266;47.552;19.078;2022-10-16T18:20:57;27.20;;;15.65;;
63007;SDS011;49266;47.552;19.078;2022-10-16T18:25:38;25.10;;;14.80;;
63007;SDS011;49266;47.552;19.078;2022-10-16T18:30:18;25.85;;;16.90;;
63007;SDS011;49266;47.552;19.078;2022-10-16T18:34:58;26.80;;;18.23;;
63007;SDS011;49266;47.552;19.078;2022-10-16T18:39:38;25.60;;;17.50;;
63007;SDS011;49266;47.552;19.078;2022-10-16T18:44:19;26.10;;;17.45;;
63007;SDS011;49266;47.552;19.078;2022-10-16T18:48:59;48.95;;;27.75;;
63007;SDS011;49266;47.552;19.078;2022-10-16T18:53:41;30.38;;;19.42;;
63007;SDS011;49266;47.552;19.078;2022-10-16T18:58:22;30.08;;;19.00;;
63007;SDS011;49266;47.552;19.078;2022-10-16T19:03:02;31.13;;;19.45;;
63007;SDS011;49266;47.552;19.078;2022-10-16T19:07:44;32.40;;;20.13;;
63007;SDS011;49266;47.552;19.078;2022-10-16T19:12:24;26.80;;;20.08;;
63007;SDS011;49266;47.552;19.078;2022-10-16T19:17:05;28.15;;;19.67;;
63007;SDS011;49266;47.552;19.078;2022-10-16T19:21:45;31.23;;;20.30;;
63007;SDS011;49266;47.552;19.078;2022-10-16T19:26:27;29.05;;;18.85;;
63007;SDS011;49266;47.552;19.078;2022-10-16T19:31:09;28.40;;;18.85;;
63007;SDS011;49266;47.552;19.078;2022-10-16T19:35:50;29.38;;;20.55;;
63007;SDS011;49266;47.552;19.078;2022-10-16T19:40:30;29.90;;;21.05;;
63007;SDS011;49266;47.552;19.078;2022-10-16T19:45:11;25.73;;;18.37;;
63007;SDS011;49266;47.552;19.078;2022-10-16T19:49:51;29.63;;;18.65;;
63007;SDS011;49266;47.552;19.078;2022-10-16T19:54:32;27.25;;;20.35;;
63007;SDS011;49266;47.552;19.078;2022-10-16T19:59:14;33.00;;;20.65;;
63007;SDS011;49266;47.552;19.078;2022-10-16T20:03:58;28.83;;;20.52;;
63007;SDS011;49266;47.552;19.078;2022-10-16T20:08:39;30.25;;;21.02;;
63007;SDS011;49266;47.552;19.078;2022-10-16T20:13:20;34.30;;;21.48;;
63007;SDS011;49266;47.552;19.078;2022-10-16T20:18:00;31.95;;;21.00;;
63007;SDS011;49266;47.552;19.078;2022-10-16T20:22:40;31.80;;;21.77;;
63007;SDS011;49266;47.552;19.078;2022-10-16T20:27:21;31.70;;;23.13;;
63007;SDS011;49266;47.552;19.078;2022-10-16T20:32:01;41.85;;;24.13;;
63007;SDS011;49266;47.552;19.078;2022-10-16T20:36:41;34.63;;;23.25;;
63007;SDS011;49266;47.552;19.078;2022-10-16T20:41:24;33.75;;;22.45;;
63007;SDS011;49266;47.552;19.078;2022-10-16T20:46:04;32.72;;;23.33;;
63007;SDS011;49266;47.552;19.078;2022-10-16T20:50:45;34.90;;;23.67;;
63007;SDS011;49266;47.552;19.078;2022-10-16T20:55:25;34.20;;;22.95;;
63007;SDS011;49266;47.552;19.078;2022-10-16T21:00:06;33.72;;;22.90;;
63007;SDS011;49266;47.552;19.078;2022-10-16T21:04:47;36.92;;;23.88;;
63007;SDS011;49266;47.552;19.078;2022-10-16T21:09:27;43.17;;;22.85;;
63007;SDS011;49266;47.552;19.078;2022-10-16T21:14:07;37.28;;;22.23;;
63007;SDS011;49266;47.552;19.078;2022-10-16T21:18:48;33.97;;;23.30;;
63007;SDS011;49266;47.552;19.078;2022-10-16T21:23:28;33.63;;;21.95;;
63007;SDS011;49266;47.552;19.078;2022-10-16T21:28:10;34.70;;;22.98;;
63007;SDS011;49266;47.552;19.078;2022-10-16T21:32:50;33.70;;;22.00;;
63007;SDS011;49266;47.552;19.078;2022-10-16T21:37:31;29.60;;;22.05;;
63007;SDS011;49266;47.552;19.078;2022-10-16T21:42:12;32.50;;;21.88;;
63007;SDS011;49266;47.552;19.078;2022-10-16T21:46:52;35.47;;;21.65;;
63007;SDS011;49266;47.552;19.078;2022-10-16T21:51:33;33.70;;;21.55;;
63007;SDS011;49266;47.552;19.078;2022-10-16T21:56:14;31.55;;;21.88;;
63007;SDS011;49266;47.552;19.078;2022-10-16T22:00:55;31.23;;;22.38;;
63007;SDS011;49266;47.552;19.078;2022-10-16T22:05:35;35.83;;;22.50;;
63007;SDS011;49266;47.552;19.078;2022-10-16T22:10:15;29.73;;;22.25;;
63007;SDS011;49266;47.552;19.078;2022-10-16T22:14:55;32.67;;;24.02;;
63007;SDS011;49266;47.552;19.078;2022-10-16T22:19:35;34.03;;;23.95;;
63007;SDS011;49266;47.552;19.078;2022-10-16T22:24:16;34.85;;;24.05;;
63007;SDS011;49266;47.552;19.078;2022-10-16T22:28:56;33.85;;;23.88;;
63007;SDS011;49266;47.552;19.078;2022-10-16T22:33:37;34.35;;;23.58;;
63007;SDS011;49266;47.552;19.078;2022-10-16T22:38:17;37.78;;;24.73;;
63007;SDS011;49266;47.552;19.078;2022-10-16T22:42:57;34.95;;;23.75;;
63007;SDS011;49266;47.552;19.078;2022-10-16T22:47:38;33.50;;;23.17;;
63007;SDS011;49266;47.552;19.078;2022-10-16T22:52:18;32.97;;;23.20;;
63007;SDS011;49266;47.552;19.078;2022-10-16T22:56:58;33.53;;;23.73;;
63007;SDS011;49266;47.552;19.078;2022-10-16T23:01:39;33.97;;;23.92;;
63007;SDS011;49266;47.552;19.078;2022-10-16T23:06:20;38.13;;;24.52;;
63007;SDS011;49266;47.552;19.078;2022-10-16T23:11:03;36.28;;;23.83;;
63007;SDS011;49266;47.552;19.078;2022-10-16T23:15:43;33.22;;;23.58;;
63007;SDS011;49266;47.552;19.078;2022-10-16T23:20:24;34.97;;;23.15;;
63007;SDS011;49266;47.552;19.078;2022-10-16T23:25:04;34.40;;;24.83;;
63007;SDS011;49266;47.552;19.078;2022-10-16T23:29:45;35.78;;;24.08;;
63007;SDS011;49266;47.552;19.078;2022-10-16T23:34:25;32.67;;;23.77;;
63007;SDS011;49266;47.552;19.078;2022-10-16T23:39:05;32.58;;;23.77;;
63007;SDS011;49266;47.552;19.078;2022-10-16T23:43:46;37.92;;;24.52;;
63007;SDS011;49266;47.552;19.078;2022-10-16T23:48:26;35.40;;;23.67;;
63007;SDS011;49266;47.552;19.078;2022-10-16T23:53:06;31.05;;;23.95;;
63007;SDS011;49266;47.552;19.078;2022-10-16T23:57:46;31.85;;;22.92;;
